Latest Weather Observations for Dunalley

IDT60801

Issued at 11:05 pm EST Sunday 20 April 2014 (issued every 30 minutes, with the page automatically refreshed every 10 minutes)

About weather observations | Map of weather stations | Latest weather observations for TAS | Other Formats
Station Details ID: 094254 Name: DUNALLEY (STROUD POINT) Lat: -42.90 Lon: 147.79 Height: 12.43 m
Data from the previous 72 hours. | See also: Recent months at Dunalley
Date/Time
EST
Temp
°C
App
Temp
°C
Dew
Point
Rel
Hum
%
Delta-T
°C
Wind Press
QNH
hPa
Press
MSL
hPa
Rain
since 9 am
mm
Dir
 
Spd
km/h
Gust
km/h
Spd
kts
Gust
kts
20/11:00pm 11.1 3.4 3.4 59 3.4 W 33 41 18 22 1015.2 1015.2 0.0
20/10:30pm 11.5 3.3 4.9 64 3.0 W 37 43 20 23 1014.9 - 0.0
20/10:00pm 11.3 3.7 4.1 61 3.2 WSW 33 41 18 22 1014.8 1014.8 0.0
20/09:30pm 11.6 4.6 6.1 69 2.6 W 32 39 17 21 1014.4 - 0.0
20/09:00pm 12.1 5.2 6.6 69 2.6 WSW 32 37 17 20 1013.9 1013.9 0.0
20/08:30pm 12.5 3.9 6.3 66 2.9 WSW 41 48 22 26 1013.3 - 0.0
20/08:00pm 12.8 4.1 6.2 64 3.1 WSW 41 50 22 27 1012.5 1012.5 0.0
20/07:30pm 13.1 6.2 7.1 67 2.9 WSW 33 41 18 22 1012.1 - 0.0
20/07:00pm 13.4 4.9 7.0 65 3.1 WSW 41 48 22 26 1011.6 1011.6 0.0
20/06:30pm 13.1 7.3 9.5 79 1.8 SW 30 33 16 18 1011.1 - 0.0
20/06:00pm 13.2 6.9 9.8 80 1.7 SW 33 41 18 22 1010.4 1010.4 0.0
20/05:30pm 12.9 8.6 10.8 87 1.1 S 24 28 13 15 1009.9 - 0.0
20/05:00pm 14.6 8.1 10.2 75 2.3 WSW 35 39 19 21 1009.1 1009.1 0.0
20/04:30pm 14.7 8.6 10.5 76 2.2 WSW 33 41 18 22 1008.6 - 0.0
20/04:00pm 15.0 9.2 10.8 76 2.2 WSW 32 41 17 22 1008.2 1008.2 0.0
20/03:30pm 15.4 9.9 10.6 73 2.5 SW 30 39 16 21 1007.8 - 0.0
20/03:00pm 17.6 12.9 7.9 53 4.9 W 22 32 12 17 1007.3 1007.3 0.0
20/02:30pm 18.1 12.2 7.5 50 5.4 W 28 43 15 23 1007.0 - 0.0
20/02:00pm 19.0 13.8 7.4 47 5.9 WNW 24 39 13 21 1006.8 1006.8 0.0
20/01:30pm 17.9 13.0 6.7 48 5.6 WNW 22 32 12 17 1007.0 - 0.0
20/01:00pm 17.1 12.5 6.6 50 5.2 WNW 20 28 11 15 1007.3 1007.3 0.0
20/12:30pm 16.7 12.7 6.5 51 5.0 WNW 17 35 9 19 1007.9 - 0.0
20/12:00pm 15.7 11.3 6.4 54 4.5 WNW 19 26 10 14 1008.3 1008.3 0.0
20/11:30am 15.3 12.3 5.8 53 4.5 NW 11 20 6 11 1009.0 - 0.0
20/11:00am 15.1 11.7 5.9 54 4.4 NW 13 20 7 11 1009.3 1009.3 0.0
20/10:30am 15.5 11.4 6.0 53 4.6 NW 17 24 9 13 1009.6 - 0.0
20/10:00am 13.6 11.2 5.3 57 3.9 N 7 11 4 6 1010.1 1010.1 0.0
20/09:30am 13.3 11.5 5.2 58 3.8 N 4 7 2 4 1010.5 - 0.0
20/09:00am 11.6 9.6 4.3 61 3.3 N 4 9 2 5 1010.9 1010.9 0.0
20/08:30am 10.6 8.1 4.7 67 2.7 N 7 15 4 8 1011.0 - 0.0
20/08:00am 10.2 7.9 5.0 70 2.4 N 6 9 3 5 1011.0 1011.0 0.0
20/07:30am 9.5 7.0 4.7 72 2.1 N 7 13 4 7 1011.1 - 0.0
20/07:00am 8.7 6.2 4.9 77 1.7 N 7 11 4 6 1011.1 1011.1 0.0
20/06:30am 8.6 5.4 2.8 67 2.5 N 9 13 5 7 1010.9 - 0.0
20/06:00am 8.3 5.0 2.5 67 2.4 N 9 13 5 7 1011.1 1011.1 0.0
20/05:30am 8.3 5.3 2.3 66 2.5 N 7 13 4 7 1011.2 - 0.0
20/05:00am 8.5 4.4 2.3 65 2.6 N 13 17 7 9 1011.3 1011.3 0.0
20/04:30am 8.3 4.6 2.1 65 2.6 N 11 15 6 8 1011.4 - 0.0
20/04:00am 8.3 3.8 2.3 66 2.5 N 15 19 8 10 1011.6 1011.6 0.0
20/03:30am 8.2 4.1 2.2 66 2.5 NNW 13 15 7 8 1011.9 - 0.0
20/03:00am 9.3 5.6 2.2 61 3.0 NNW 11 15 6 8 1012.4 1012.4 0.0
20/02:30am 9.5 5.8 2.6 62 2.9 NW 11 19 6 10 1012.7 - 0.0
20/02:00am 9.0 5.0 2.8 65 2.6 NW 13 15 7 8 1012.9 1012.9 0.0
20/01:30am 8.7 4.8 3.3 69 2.3 NW 13 17 7 9 1013.2 - 0.0
20/01:00am 9.1 4.9 3.7 69 2.3 WNW 15 20 8 11 1013.3 1013.3 0.0
20/12:30am 9.0 5.2 4.0 71 2.2 WNW 13 17 7 9 1013.4 - 0.0
20/12:00am 9.8 6.5 4.4 69 2.4 WNW 11 17 6 9 1013.6 1013.6 0.0
 
Date/Time
EST
Temp
°C
App
Temp
°C
Dew
Point
Rel
Hum
%
Delta-T
°C
Wind Press
QNH
hPa
Press
MSL
hPa
Rain
since 9 am
mm
Dir
 
Spd
km/h
Gust
km/h
Spd
kts
Gust
kts
19/11:30pm 10.6 7.3 4.5 66 2.7 WNW 11 15 6 8 1014.0 - 0.0
19/11:00pm 11.0 7.7 4.7 65 2.8 WNW 11 17 6 9 1014.2 1014.2 0.0
19/10:30pm 11.2 7.8 4.0 61 3.2 W 11 15 6 8 1014.6 - 0.0
19/10:00pm 11.2 8.2 4.0 61 3.2 W 9 13 5 7 1014.8 1014.8 0.0
19/09:30pm 11.4 8.5 4.8 64 3.0 W 9 17 5 9 1014.9 - 0.0
19/09:00pm 12.3 6.7 5.2 62 3.3 WSW 24 30 13 16 1014.9 1014.9 0.0
19/08:30pm 12.3 6.3 5.5 63 3.2 WSW 26 32 14 17 1014.9 - 0.0
19/08:00pm 12.2 6.3 5.8 65 3.0 WSW 26 32 14 17 1014.9 1014.9 0.0
19/07:30pm 12.4 6.5 5.8 64 3.1 WSW 26 33 14 18 1014.8 - 0.0
19/07:00pm 12.4 7.0 6.2 66 2.9 WSW 24 30 13 16 1014.9 1014.9 0.0
19/06:30pm 12.1 9.2 6.6 69 2.6 SW 11 17 6 9 1014.8 - 0.0
19/06:00pm 12.1 9.2 6.6 69 2.6 SW 11 15 6 8 1014.7 1014.7 0.0
19/05:30pm 11.9 8.6 6.6 70 2.5 SW 13 17 7 9 1014.6 - 0.0
19/05:00pm 12.2 8.0 7.3 72 2.4 SW 19 22 10 12 1014.5 1014.5 0.0
19/04:30pm 12.0 6.1 7.3 73 2.3 SSW 28 33 15 18 1014.5 - 0.0
19/04:00pm 12.7 8.6 7.8 72 2.4 SSW 19 24 10 13 1014.5 1014.5 0.0
19/03:30pm 12.8 8.1 6.2 64 3.1 SW 20 24 11 13 1014.5 - 0.0
19/03:00pm 13.5 8.0 6.1 61 3.5 SW 24 32 13 17 1014.4 1014.4 0.0
19/02:30pm 13.3 7.5 6.2 62 3.4 SW 26 30 14 16 1014.3 - 0.0
19/02:00pm 13.2 7.3 5.6 60 3.6 SSW 26 33 14 18 1014.4 1014.4 0.0
19/01:30pm 13.4 7.1 5.6 59 3.7 WSW 28 33 15 18 1014.4 - 0.0
19/01:00pm 14.0 7.3 5.6 57 4.0 WSW 30 44 16 24 1014.6 1014.6 0.0
19/12:30pm 13.0 5.7 4.7 57 3.8 WSW 32 41 17 22 1014.8 - 0.0
19/12:00pm 13.3 5.5 5.0 57 3.8 WSW 35 44 19 24 1015.2 1015.2 0.0
19/11:30am 12.6 3.2 5.3 61 3.4 WSW 44 61 24 33 1015.4 - 0.0
19/11:23am 12.9 4.0 5.3 60 3.5 WSW 41 61 22 33 1015.4 - 0.0
19/11:00am 13.3 5.5 5.0 57 3.8 WSW 35 44 19 24 1015.4 1015.4 0.0
19/10:30am 12.7 4.9 5.1 60 3.5 WSW 35 43 19 23 1015.4 - 0.0
19/10:00am 13.0 4.2 5.4 60 3.5 WSW 41 52 22 28 1015.2 1015.2 0.0
19/09:30am 12.4 4.9 6.5 67 2.8 WSW 35 43 19 23 1015.3 - 0.0
19/09:00am 11.6 3.0 6.5 71 2.4 W 41 50 22 27 1015.1 1015.1 2.2
19/08:30am 11.6 3.0 6.7 72 2.3 WSW 41 56 22 30 1014.8 - 2.2
19/08:00am 11.0 1.8 6.4 73 2.2 WSW 44 54 24 29 1014.7 1014.7 2.2
19/07:30am 10.8 1.8 6.6 75 2.0 W 43 52 23 28 1014.3 - 2.2
19/07:00am 10.8 1.8 6.4 74 2.1 W 43 56 23 30 1014.0 1014.0 2.2
19/06:30am 10.6 2.4 6.6 76 1.9 WSW 39 48 21 26 1013.8 - 2.2
19/06:00am 10.7 1.8 6.8 77 1.8 W 43 50 23 27 1013.6 1013.6 2.2
19/05:30am 10.4 2.1 6.2 75 2.0 W 39 48 21 26 1013.2 - 2.2
19/05:00am 10.7 2.5 6.5 75 2.0 W 39 46 21 25 1013.2 1013.2 2.2
19/04:30am 10.9 2.3 6.5 74 2.1 W 41 50 22 27 1012.9 - 2.2
19/04:00am 10.9 2.6 6.3 73 2.2 W 39 50 21 27 1013.0 1013.0 2.2
19/03:30am 10.9 3.4 6.1 72 2.2 W 35 44 19 24 1012.8 - 2.2
19/03:00am 11.0 2.4 6.4 73 2.2 W 41 50 22 27 1012.7 1012.7 2.2
19/02:30am 11.4 2.4 6.3 71 2.4 WSW 43 54 23 29 1012.6 - 2.2
19/02:00am 11.3 2.6 6.2 71 2.4 W 41 48 22 26 1012.5 1012.5 2.2
19/01:30am 11.2 2.5 6.1 71 2.4 W 41 50 22 27 1012.6 - 2.2
19/01:00am 11.5 2.6 6.8 73 2.2 WSW 43 54 23 29 1012.5 1012.5 2.2
19/12:30am 11.7 2.6 6.8 72 2.3 WSW 44 52 24 28 1012.4 - 2.2
19/12:00am 11.7 2.7 6.2 69 2.6 WSW 43 50 23 27 1012.4 1012.4 2.2
 
Date/Time
EST
Temp
°C
App
Temp
°C
Dew
Point
Rel
Hum
%
Delta-T
°C
Wind Press
QNH
hPa
Press
MSL
hPa
Rain
since 9 am
mm
Dir
 
Spd
km/h
Gust
km/h
Spd
kts
Gust
kts
18/11:30pm 12.0 3.4 6.7 70 2.5 WSW 41 48 22 26 1012.5 - 2.2
18/11:00pm 12.3 3.3 7.2 71 2.5 WSW 44 54 24 29 1012.4 1012.4 2.2
18/10:30pm 12.4 3.0 7.1 70 2.6 WSW 46 56 25 30 1012.3 - 2.2
18/10:00pm 12.3 2.8 6.8 69 2.6 WSW 46 56 25 30 1012.3 1012.3 2.2
18/09:30pm 12.2 3.1 6.7 69 2.6 WSW 44 52 24 28 1012.1 - 2.2
18/09:00pm 12.3 3.2 7.0 70 2.5 WSW 44 52 24 28 1011.8 1011.8 2.2
18/08:30pm 12.5 4.1 7.2 70 2.6 WSW 41 48 22 26 1011.5 - 2.2
18/08:00pm 12.5 4.9 7.4 71 2.5 SW 37 44 20 24 1011.4 1011.4 2.2
18/07:30pm 12.6 3.9 6.2 65 3.0 WSW 41 48 22 26 1011.0 - 2.2
18/07:00pm 12.8 4.3 7.0 68 2.8 WSW 41 52 22 28 1010.6 1010.6 2.2
18/06:30pm 12.7 5.3 6.7 67 2.9 WSW 35 43 19 23 1010.5 - 2.2
18/06:00pm 13.2 3.8 7.0 66 3.0 WSW 46 56 25 30 1010.0 1010.0 2.2
18/05:30pm 13.4 3.5 6.5 63 3.3 WSW 48 56 26 30 1009.4 - 2.2
18/05:00pm 13.7 4.3 7.2 65 3.2 WSW 46 52 25 28 1009.0 1009.0 2.2
18/04:30pm 13.6 6.0 9.1 74 2.3 WSW 39 46 21 25 1008.7 - 2.2
18/04:00pm 13.0 3.8 8.1 72 2.4 WSW 46 59 25 32 1008.1 1008.1 2.2
18/03:30pm 15.0 7.9 8.0 63 3.5 WSW 35 41 19 22 1008.0 - 2.2
18/03:00pm 14.0 6.5 8.0 67 3.0 WSW 37 44 20 24 1007.7 1007.7 2.2
18/02:30pm 13.8 5.5 7.8 67 3.0 WSW 41 50 22 27 1007.4 - 2.2
18/02:00pm 13.9 5.3 8.1 68 2.9 W 43 52 23 28 1007.6 1007.6 2.2
18/01:30pm 13.7 4.9 7.9 68 2.9 WSW 44 54 24 29 1007.4 - 2.2
18/01:00pm 13.4 5.7 8.5 72 2.5 WSW 39 52 21 28 1007.5 1007.5 2.2
18/12:30pm 13.4 5.4 8.9 74 2.3 WSW 41 48 22 26 1007.4 - 2.2
18/12:00pm 13.1 5.5 9.0 76 2.1 SW 39 48 21 26 1007.3 1007.3 2.2
18/11:30am 12.8 5.0 9.8 82 1.5 WSW 41 50 22 27 1008.5 - 2.0
18/11:00am 12.4 2.4 10.8 90 0.8 WSW 54 70 29 38 1008.4 1008.4 1.6
18/10:39am 13.6 2.9 11.5 87 1.1 W 59 76 32 41 1008.0 - 0.4
18/10:38am 15.2 9.2 12.2 82 1.6 W 35 74 19 40 1008.0 - 0.2
18/10:30am 17.0 16.5 11.9 72 2.8 N 6 11 3 6 1007.2 - 0.0
18/10:00am 18.0 14.9 12.2 69 3.2 ENE 20 26 11 14 1006.7 1006.7 0.0
18/09:30am 17.5 14.4 12.2 71 2.9 NE 20 30 11 16 1006.6 - 0.0
18/09:00am 16.9 14.2 11.8 72 2.8 NNE 17 22 9 12 1007.3 1007.3 0.0
18/08:30am 14.9 12.0 11.1 78 2.0 NNE 17 20 9 11 1008.2 - 0.0
18/08:00am 15.4 12.0 11.2 76 2.3 N 20 26 11 14 1008.3 1008.3 0.0
18/07:30am 14.3 11.0 10.9 80 1.8 N 19 26 10 14 1008.7 - 0.0
18/07:00am 14.1 10.9 11.1 82 1.6 N 19 26 10 14 1008.9 1008.9 0.0
18/06:30am 13.7 11.2 10.9 83 1.5 NNE 15 19 8 10 1009.2 - 0.0
18/06:00am 14.1 11.4 10.3 78 2.0 N 15 22 8 12 1009.6 1009.6 0.0
18/05:30am 14.5 11.8 10.3 76 2.2 N 15 22 8 12 1010.0 - 0.0
18/05:00am 14.0 11.3 10.4 79 1.9 ENE 15 19 8 10 1010.3 1010.3 0.0
18/04:30am 14.1 12.8 10.1 77 2.1 E 7 11 4 6 1010.9 - 0.0
18/04:00am 14.0 12.7 10.0 77 2.1 N 7 19 4 10 1011.0 1011.0 0.0
18/03:30am 14.4 11.7 8.8 69 2.8 N 13 19 7 10 1011.3 - 0.0
18/03:00am 15.1 11.2 8.6 65 3.3 NNW 19 22 10 12 1011.5 1011.5 0.0
18/02:30am 14.5 10.9 9.7 73 2.5 N 19 26 10 14 1012.0 - 0.0
18/02:00am 14.3 10.7 9.9 75 2.3 NNW 19 26 10 14 1012.5 1012.5 0.0
18/01:30am 14.3 11.5 10.1 76 2.2 N 15 20 8 11 1013.1 - 0.0
18/01:00am 14.5 12.5 10.1 75 2.3 NNW 11 19 6 10 1013.5 1013.5 0.0
18/12:30am 14.3 13.0 10.1 76 2.2 N 7 15 4 8 1013.9 - 0.0
18/12:00am 14.8 13.8 10.2 74 2.4 N 6 9 3 5 1014.2 1014.2 0.0
 
Date/Time
EST
Temp
°C
App
Temp
°C
Dew
Point
Rel
Hum
%
Delta-T
°C
Wind Press
QNH
hPa
Press
MSL
hPa
Rain
since 9 am
mm
Dir
 
Spd
km/h
Gust
km/h
Spd
kts
Gust
kts
17/11:30pm 14.9 13.1 9.3 69 2.9 NNW 9 19 5 10 1014.5 - 0.0

Other Formats:

Comma delimited format used in spreadsheet applications
http://www.bom.gov.au/fwo/IDT60801/IDT60801.94951.axf

JavaScript Object Notation format (JSON) in row-major order
http://www.bom.gov.au/fwo/IDT60801/IDT60801.94951.json